createdAt,value
2022-08-07T00:00:26.009Z,1.57
2022-08-07T00:02:53.873Z,2.10
2022-08-07T00:05:23.676Z,1.97
2022-08-07T00:07:59.948Z,1.97
2022-08-07T00:10:31.415Z,2.27
2022-08-07T00:13:02.481Z,1.73
2022-08-07T00:15:46.759Z,1.67
2022-08-07T00:18:25.606Z,1.17
2022-08-07T00:21:01.397Z,1.90
2022-08-07T00:23:31.709Z,1.70
2022-08-07T00:26:18.544Z,1.70
2022-08-07T00:28:55.453Z,2.17
2022-08-07T00:31:26.080Z,1.73
2022-08-07T00:34:08.942Z,2.07
2022-08-07T00:36:42.731Z,2.50
2022-08-07T00:39:16.969Z,2.90
2022-08-07T00:42:05.036Z,2.17
2022-08-07T00:44:34.843Z,2.17
2022-08-07T00:47:03.855Z,1.90
2022-08-07T00:50:19.916Z,2.20
2022-08-07T00:52:21.801Z,2.30
2022-08-07T00:54:53.752Z,2.43
2022-08-07T00:57:26.355Z,2.50
2022-08-07T00:59:54.464Z,2.47
2022-08-07T01:02:29.319Z,2.23
2022-08-07T01:04:59.172Z,2.10
2022-08-07T01:07:29.519Z,2.53
2022-08-07T01:10:05.349Z,2.70
2022-08-07T01:12:36.688Z,2.23
2022-08-07T01:15:11.902Z,2.07
2022-08-07T01:17:44.590Z,2.30
2022-08-07T01:20:16.593Z,2.50
2022-08-07T01:22:46.726Z,2.07
2022-08-07T01:25:54.667Z,2.37
2022-08-07T01:28:17.319Z,2.77
2022-08-07T01:30:47.333Z,2.43
2022-08-07T01:33:19.203Z,2.37
2022-08-07T01:35:53.473Z,2.07
2022-08-07T01:38:25.785Z,2.33
2022-08-07T01:41:04.513Z,2.20
2022-08-07T01:43:38.344Z,2.40
2022-08-07T01:46:08.068Z,2.60
2022-08-07T01:48:46.647Z,2.37
2022-08-07T01:51:58.504Z,2.27
2022-08-07T01:54:33.299Z,2.67
2022-08-07T01:57:24.818Z,2.23
2022-08-07T02:00:13.716Z,2.30
2022-08-07T02:03:11.942Z,2.90
2022-08-07T02:05:59.358Z,2.30
2022-08-07T02:08:29.974Z,2.10
2022-08-07T02:11:00.638Z,2.03
2022-08-07T02:13:56.444Z,2.67
2022-08-07T02:16:28.799Z,2.27
2022-08-07T02:20:07.489Z,2.00
2022-08-07T02:21:58.904Z,2.60
2022-08-07T02:24:30.067Z,2.33
2022-08-07T02:27:01.354Z,2.53
2022-08-07T02:29:31.675Z,2.20
2022-08-07T02:32:01.772Z,1.83
2022-08-07T02:34:32.567Z,2.10
2022-08-07T02:37:08.196Z,1.90
2022-08-07T02:39:42.397Z,2.10
2022-08-07T02:42:16.414Z,2.33
2022-08-07T02:44:50.178Z,2.23
2022-08-07T02:47:23.333Z,2.10
2022-08-07T02:50:00.177Z,2.50
2022-08-07T02:52:44.253Z,2.30
2022-08-07T02:56:02.157Z,2.10
2022-08-07T02:58:22.398Z,2.40
2022-08-07T03:00:58.048Z,3.30
2022-08-07T03:03:49.263Z,2.03
2022-08-07T03:06:32.092Z,2.00
2022-08-07T03:09:03.619Z,2.43
2022-08-07T03:11:38.581Z,1.90
2022-08-07T03:14:07.768Z,2.70
2022-08-07T03:16:35.870Z,2.10
2022-08-07T03:19:07.812Z,2.10
2022-08-07T03:21:36.004Z,2.13
2022-08-07T03:24:20.157Z,2.20
2022-08-07T03:26:59.132Z,1.93
2022-08-07T03:29:46.055Z,2.83
2022-08-07T03:32:58.219Z,2.53
2022-08-07T03:35:43.691Z,2.30
2022-08-07T03:38:21.174Z,2.57
2022-08-07T03:40:53.927Z,2.17
2022-08-07T03:43:32.229Z,2.10
2022-08-07T03:46:10.557Z,2.63
2022-08-07T03:49:02.441Z,2.27
2022-08-07T03:51:47.409Z,2.57
2022-08-07T03:54:36.120Z,2.43
2022-08-07T03:57:08.313Z,2.30
2022-08-07T03:59:46.637Z,2.10
2022-08-07T04:02:27.224Z,2.33
2022-08-07T04:04:54.726Z,2.90
2022-08-07T04:07:25.205Z,2.20
2022-08-07T04:10:05.305Z,2.30
2022-08-07T04:12:35.278Z,1.90
2022-08-07T04:15:04.886Z,2.20
2022-08-07T04:18:31.204Z,1.83
2022-08-07T04:20:25.383Z,1.83
2022-08-07T04:23:01.600Z,1.90
2022-08-07T04:25:39.403Z,2.20
2022-08-07T04:28:13.305Z,1.80
2022-08-07T04:30:55.350Z,1.70
2022-08-07T04:33:32.031Z,1.87
2022-08-07T04:36:06.542Z,1.97
2022-08-07T04:38:37.292Z,2.03
2022-08-07T04:41:04.890Z,3.10
2022-08-07T04:44:12.138Z,1.60
2022-08-07T04:47:08.716Z,1.97
2022-08-07T04:50:22.264Z,1.60
2022-08-07T04:54:00.959Z,1.60
2022-08-07T04:58:13.257Z,1.80
2022-08-07T05:00:10.983Z,1.60
2022-08-07T05:02:59.247Z,1.50
2022-08-07T05:05:53.512Z,1.40
2022-08-07T05:09:08.131Z,1.50
2022-08-07T05:11:57.171Z,1.60
2022-08-07T05:14:53.824Z,1.33
2022-08-07T05:17:53.054Z,1.50
2022-08-07T05:20:23.858Z,1.13
2022-08-07T05:22:56.641Z,1.10
2022-08-07T05:25:26.296Z,1.00
2022-08-07T05:28:21.362Z,1.23
2022-08-07T05:30:57.043Z,1.37
2022-08-07T05:33:30.400Z,1.00
2022-08-07T05:35:59.178Z,1.00
2022-08-07T05:39:01.294Z,1.20
2022-08-07T05:41:18.452Z,1.10
2022-08-07T05:44:08.521Z,1.07
2022-08-07T05:46:44.276Z,0.83
2022-08-07T05:49:13.066Z,1.00
2022-08-07T05:51:46.150Z,1.13
2022-08-07T05:54:30.261Z,1.20
2022-08-07T05:57:03.485Z,1.00
2022-08-07T05:59:46.534Z,0.93
2022-08-07T06:02:30.560Z,1.00
2022-08-07T06:05:15.440Z,1.10
2022-08-07T06:08:12.902Z,1.00
2022-08-07T06:10:38.850Z,1.17
2022-08-07T06:13:13.583Z,1.23
2022-08-07T06:15:43.563Z,0.83
2022-08-07T06:18:21.594Z,0.87
2022-08-07T06:22:16.781Z,0.80
2022-08-07T06:23:45.858Z,1.10
2022-08-07T06:26:27.933Z,0.90
2022-08-07T06:29:01.538Z,1.00
2022-08-07T06:31:49.373Z,1.17
2022-08-07T06:34:20.717Z,1.00
2022-08-07T06:36:51.824Z,1.00
2022-08-07T06:40:17.714Z,1.10
2022-08-07T06:42:35.096Z,1.17
2022-08-07T06:45:18.286Z,1.10
2022-08-07T06:47:57.311Z,0.90
2022-08-07T06:50:33.409Z,1.00
2022-08-07T06:53:07.200Z,0.90
2022-08-07T06:56:01.194Z,0.80
2022-08-07T06:58:32.122Z,1.10
2022-08-07T07:01:09.292Z,1.20
2022-08-07T07:03:48.615Z,0.80
2022-08-07T07:06:24.024Z,0.97
2022-08-07T07:08:55.120Z,1.00
2022-08-07T07:12:08.835Z,1.20
2022-08-07T07:14:14.104Z,1.30
2022-08-07T07:16:50.074Z,0.70
2022-08-07T07:19:57.589Z,1.17
2022-08-07T07:22:35.808Z,1.17
2022-08-07T07:26:31.225Z,1.20
2022-08-07T07:28:42.036Z,0.83
2022-08-07T07:31:10.929Z,1.17
2022-08-07T07:33:39.369Z,0.80
2022-08-07T07:36:12.856Z,1.27
2022-08-07T07:38:43.477Z,1.50
2022-08-07T07:41:19.627Z,1.10
2022-08-07T07:44:17.558Z,1.47
2022-08-07T07:46:55.187Z,1.00
2022-08-07T07:50:34.693Z,1.00
2022-08-07T07:52:17.236Z,1.13
2022-08-07T07:54:50.575Z,0.90
2022-08-07T07:57:44.059Z,1.20
2022-08-07T08:00:11.491Z,1.23
2022-08-07T08:03:01.314Z,0.93
2022-08-07T08:05:32.250Z,1.23
2022-08-07T08:08:35.669Z,1.17
2022-08-07T08:11:01.590Z,1.70
2022-08-07T08:13:33.257Z,1.07
2022-08-07T08:16:19.728Z,1.47
2022-08-07T08:18:55.822Z,1.20
2022-08-07T08:21:55.455Z,1.67
2022-08-07T08:25:04.770Z,1.47
2022-08-07T08:27:56.226Z,1.50
2022-08-07T08:30:32.023Z,1.37
2022-08-07T08:33:02.994Z,1.50
2022-08-07T08:35:39.434Z,1.90
2022-08-07T08:38:16.853Z,1.40
2022-08-07T08:41:02.975Z,1.40
2022-08-07T08:43:50.533Z,1.70
2022-08-07T08:46:39.591Z,1.40
2022-08-07T08:50:06.044Z,1.40
2022-08-07T08:52:51.732Z,1.40
2022-08-07T08:56:01.614Z,1.60
2022-08-07T08:59:02.347Z,1.30
2022-08-07T09:02:09.019Z,1.20
2022-08-07T09:04:59.356Z,1.80
2022-08-07T09:08:17.802Z,1.20
2022-08-07T09:11:43.408Z,1.20
2022-08-07T09:14:37.190Z,1.50
2022-08-07T09:18:01.325Z,1.37
2022-08-07T09:21:01.005Z,1.50
2022-08-07T09:24:32.504Z,1.13
2022-08-07T09:27:19.997Z,1.73
2022-08-07T09:30:03.549Z,1.43
2022-08-07T09:33:41.016Z,1.43
2022-08-07T09:36:35.448Z,2.20
2022-08-07T09:39:52.671Z,1.77
2022-08-07T09:42:23.037Z,1.80
2022-08-07T09:46:29.077Z,1.60
2022-08-07T09:48:30.115Z,1.30
2022-08-07T09:52:15.231Z,1.50
2022-08-07T09:54:55.882Z,1.37
2022-08-07T09:57:54.655Z,1.70
2022-08-07T10:00:32.755Z,1.93
2022-08-07T10:04:05.602Z,1.30
2022-08-07T10:07:24.612Z,2.00
2022-08-07T10:10:20.949Z,1.53
2022-08-07T10:14:00.862Z,2.07
2022-08-07T10:16:45.082Z,1.93
2022-08-07T10:20:00.627Z,1.60
2022-08-07T10:23:07.736Z,1.53
2022-08-07T10:26:17.755Z,1.50
2022-08-07T10:29:24.426Z,2.03
2022-08-07T10:32:16.548Z,1.80
2022-08-07T10:35:27.284Z,1.67
2022-08-07T10:38:35.889Z,1.53
2022-08-07T10:41:46.445Z,1.80
2022-08-07T10:44:39.639Z,1.53
2022-08-07T10:47:52.573Z,1.43
2022-08-07T10:50:28.112Z,1.67
2022-08-07T10:53:41.732Z,1.70
2022-08-07T10:56:30.969Z,1.60
2022-08-07T10:59:32.018Z,1.67
2022-08-07T11:02:33.445Z,2.07
2022-08-07T11:05:48.811Z,1.37
2022-08-07T11:08:38.914Z,1.43
2022-08-07T11:11:14.174Z,1.53
2022-08-07T11:14:45.969Z,1.67
2022-08-07T11:17:01.386Z,1.63
2022-08-07T11:20:18.712Z,1.40
2022-08-07T11:23:30.750Z,1.90
2022-08-07T11:26:25.429Z,1.37
2022-08-07T11:28:56.978Z,1.93
2022-08-07T11:31:49.046Z,1.53
2022-08-07T11:34:46.037Z,1.40
2022-08-07T11:37:57.524Z,1.37
2022-08-07T11:41:00.294Z,1.47
2022-08-07T11:44:14.358Z,1.80
2022-08-07T11:47:38.656Z,1.43
2022-08-07T11:50:57.837Z,1.70
2022-08-07T11:54:00.865Z,1.30
2022-08-07T11:57:03.020Z,1.60
2022-08-07T12:00:11.995Z,1.60
2022-08-07T12:02:58.282Z,1.60
2022-08-07T12:06:36.254Z,1.20
2022-08-07T12:09:16.366Z,1.60
2022-08-07T12:12:09.502Z,1.37
2022-08-07T12:15:00.183Z,2.07
2022-08-07T12:18:22.377Z,1.53
2022-08-07T12:21:55.648Z,1.50
2022-08-07T12:24:37.834Z,1.20
2022-08-07T12:27:18.630Z,1.70
2022-08-07T12:30:06.430Z,1.57
2022-08-07T12:32:50.370Z,1.40
2022-08-07T12:35:19.528Z,1.40
2022-08-07T12:38:09.312Z,1.20
2022-08-07T12:40:47.455Z,1.60
2022-08-07T12:44:02.677Z,1.10
2022-08-07T12:46:56.701Z,1.63
2022-08-07T12:49:51.974Z,1.60
2022-08-07T12:52:41.616Z,1.33
2022-08-07T12:56:03.128Z,1.70
2022-08-07T12:58:37.456Z,1.30
2022-08-07T13:01:08.886Z,1.60
2022-08-07T13:04:31.573Z,1.50
2022-08-07T13:08:14.298Z,1.17
2022-08-07T13:10:51.601Z,1.70
2022-08-07T13:13:57.445Z,1.70
2022-08-07T13:16:29.561Z,1.10
2022-08-07T13:19:50.740Z,1.30
2022-08-07T13:22:37.854Z,1.33
2022-08-07T13:25:24.258Z,1.67
2022-08-07T13:28:13.610Z,1.40
2022-08-07T13:30:53.223Z,1.33
2022-08-07T13:34:34.443Z,1.50
2022-08-07T13:36:57.793Z,1.37
2022-08-07T13:40:36.127Z,1.20
2022-08-07T13:42:57.328Z,1.40
2022-08-07T13:46:11.578Z,1.50
2022-08-07T13:48:20.835Z,1.60
2022-08-07T13:51:02.023Z,1.10
2022-08-07T13:54:01.559Z,1.43
2022-08-07T13:56:35.776Z,1.50
2022-08-07T13:59:27.060Z,1.50
2022-08-07T14:02:12.863Z,1.47
2022-08-07T14:05:01.564Z,1.30
2022-08-07T14:07:38.281Z,1.60
2022-08-07T14:10:28.151Z,1.30
2022-08-07T14:13:03.757Z,1.60
2022-08-07T14:15:43.574Z,1.30
2022-08-07T14:18:28.893Z,1.13
2022-08-07T14:22:02.406Z,1.57
2022-08-07T14:24:37.138Z,1.40
2022-08-07T14:28:09.773Z,1.40
2022-08-07T14:30:11.258Z,1.63
2022-08-07T14:32:45.689Z,1.57
2022-08-07T14:35:42.779Z,1.67
2022-08-07T14:38:26.552Z,1.40
2022-08-07T14:41:06.321Z,1.50
2022-08-07T14:43:58.833Z,1.60
2022-08-07T14:46:33.395Z,1.00
2022-08-07T14:49:17.400Z,1.43
2022-08-07T14:52:03.759Z,1.20
2022-08-07T14:54:42.131Z,1.57
2022-08-07T14:57:19.773Z,1.53
2022-08-07T15:00:07.010Z,1.50
2022-08-07T15:02:37.175Z,2.07
2022-08-07T15:05:20.417Z,1.30
2022-08-07T15:07:52.800Z,1.77
2022-08-07T15:10:30.123Z,1.50
2022-08-07T15:13:11.888Z,1.80
2022-08-07T15:15:52.251Z,1.47
2022-08-07T15:18:43.750Z,1.50
2022-08-07T15:21:44.151Z,1.60
2022-08-07T15:25:13.906Z,2.03
2022-08-07T15:27:12.178Z,1.33
2022-08-07T15:30:08.801Z,1.40
2022-08-07T15:33:01.299Z,1.97
2022-08-07T15:36:00.663Z,1.77
2022-08-07T15:38:30.889Z,1.83
2022-08-07T15:47:16.900Z,1.03
2022-08-07T15:50:05.903Z,1.13
2022-08-07T15:52:38.239Z,1.57
2022-08-07T15:55:12.273Z,1.53
2022-08-07T15:57:48.904Z,1.27
2022-08-07T16:00:31.599Z,1.30
2022-08-07T16:03:20.899Z,1.47
2022-08-07T16:05:52.759Z,0.90
2022-08-07T16:08:31.236Z,1.47
2022-08-07T16:11:26.750Z,1.20
2022-08-07T16:14:20.457Z,1.40
2022-08-07T16:17:16.289Z,1.10
2022-08-07T16:20:55.173Z,1.50
2022-08-07T16:24:01.096Z,1.57
2022-08-07T16:27:19.395Z,1.40
2022-08-07T16:30:31.199Z,1.27
2022-08-07T16:34:01.771Z,1.13
2022-08-07T16:37:01.822Z,1.13
2022-08-07T16:39:58.100Z,1.30
2022-08-07T16:42:59.226Z,1.10
2022-08-07T16:46:41.004Z,0.80
2022-08-07T16:50:28.730Z,1.10
2022-08-07T16:52:52.289Z,0.97
2022-08-07T16:55:47.052Z,1.00
2022-08-07T16:58:54.405Z,1.20
2022-08-07T17:01:48.463Z,0.80
2022-08-07T17:06:02.185Z,1.10
2022-08-07T17:08:02.021Z,1.03
2022-08-07T17:10:54.499Z,0.83
2022-08-07T17:13:41.465Z,1.67
2022-08-07T17:16:27.170Z,0.70
2022-08-07T17:19:04.613Z,0.97
2022-08-07T17:21:51.621Z,1.00
2022-08-07T17:24:40.223Z,1.07
2022-08-07T17:27:32.548Z,0.80
2022-08-07T17:30:18.132Z,1.10
2022-08-07T17:34:10.023Z,0.90
2022-08-07T17:36:32.617Z,0.90
2022-08-07T17:40:07.828Z,1.23
2022-08-07T17:43:00.937Z,0.97
2022-08-07T17:45:37.670Z,0.90
2022-08-07T17:48:31.112Z,0.90
2022-08-07T17:51:07.280Z,0.70
2022-08-07T17:54:06.428Z,0.80
2022-08-07T17:56:52.504Z,0.93
2022-08-07T17:59:54.903Z,0.87
2022-08-07T18:02:57.096Z,0.77
2022-08-07T18:06:02.293Z,0.70
2022-08-07T18:09:01.039Z,1.07
2022-08-07T18:12:19.536Z,0.70
2022-08-07T18:15:12.320Z,0.73
2022-08-07T18:18:33.184Z,0.90
2022-08-07T18:21:37.337Z,0.90
2022-08-07T18:24:51.596Z,0.70
2022-08-07T18:28:00.153Z,0.70
2022-08-07T18:30:44.568Z,0.80
2022-08-07T18:33:17.302Z,1.13
2022-08-07T18:36:32.875Z,0.97
2022-08-07T18:40:07.484Z,1.00
2022-08-07T18:43:01.084Z,0.80
2022-08-07T18:46:24.535Z,1.07
2022-08-07T18:50:19.571Z,0.90
2022-08-07T18:52:35.344Z,0.90
2022-08-07T18:54:42.341Z,0.90
2022-08-07T18:57:58.694Z,1.07
2022-08-07T19:01:06.953Z,1.10
2022-08-07T19:04:00.446Z,0.70
2022-08-07T19:06:57.736Z,0.70
2022-08-07T19:10:18.530Z,0.93
2022-08-07T19:13:21.792Z,0.87
2022-08-07T19:17:01.382Z,0.90
2022-08-07T19:20:02.145Z,0.80
2022-08-07T19:23:03.154Z,0.80
2022-08-07T19:26:25.326Z,0.80
2022-08-07T19:30:54.480Z,0.80
2022-08-07T19:32:18.511Z,1.57
2022-08-07T19:34:59.325Z,1.20
2022-08-07T19:37:56.607Z,0.83
2022-08-07T19:40:30.395Z,0.70
2022-08-07T19:42:59.674Z,1.10
2022-08-07T19:45:31.173Z,0.60
2022-08-07T19:48:43.931Z,0.70
2022-08-07T19:51:20.112Z,0.70
2022-08-07T19:54:31.148Z,0.70
2022-08-07T19:57:50.952Z,0.67
2022-08-07T19:59:41.979Z,0.87
2022-08-07T20:02:19.753Z,0.80
2022-08-07T20:04:50.308Z,0.90
2022-08-07T20:07:45.921Z,1.00
2022-08-07T20:10:37.000Z,0.77
2022-08-07T20:13:23.141Z,0.80
2022-08-07T20:15:58.329Z,1.00
2022-08-07T20:18:32.226Z,1.40
2022-08-07T20:21:21.455Z,1.50
2022-08-07T20:24:00.996Z,1.10
2022-08-07T20:26:32.736Z,1.20
2022-08-07T20:29:16.990Z,1.07
2022-08-07T20:32:04.280Z,1.40
2022-08-07T20:34:50.056Z,1.13
2022-08-07T20:37:29.889Z,1.23
2022-08-07T20:40:09.221Z,0.77
2022-08-07T20:42:56.703Z,0.97
2022-08-07T20:46:24.494Z,0.80
2022-08-07T20:48:28.987Z,1.10
2022-08-07T20:51:01.740Z,0.87
2022-08-07T20:54:02.908Z,1.33
2022-08-07T20:56:27.228Z,1.30
2022-08-07T20:59:01.386Z,1.03
2022-08-07T21:01:46.024Z,1.10
2022-08-07T21:04:23.637Z,1.10
2022-08-07T21:06:56.866Z,1.40
2022-08-07T21:09:35.361Z,1.30
2022-08-07T21:12:28.429Z,1.50
2022-08-07T21:15:03.230Z,1.47
2022-08-07T21:18:20.848Z,1.37
2022-08-07T21:20:29.831Z,1.70
2022-08-07T21:23:08.516Z,2.20
2022-08-07T21:26:31.185Z,1.70
2022-08-07T21:29:30.323Z,1.83
2022-08-07T21:32:48.892Z,1.53
2022-08-07T21:35:34.766Z,1.70
2022-08-07T21:38:31.329Z,1.63
2022-08-07T21:41:59.773Z,2.00
2022-08-07T21:44:41.178Z,2.10
2022-08-07T21:47:26.101Z,1.57
2022-08-07T21:50:22.562Z,1.60
2022-08-07T21:53:17.063Z,1.50
2022-08-07T21:56:36.604Z,1.20
2022-08-07T21:59:01.316Z,1.13
2022-08-07T22:02:10.450Z,1.80
2022-08-07T22:04:51.184Z,1.63
2022-08-07T22:07:58.189Z,2.10
2022-08-07T22:10:24.855Z,2.40
2022-08-07T22:12:59.791Z,2.13
2022-08-07T22:16:42.023Z,2.20
2022-08-07T22:19:23.528Z,1.90
2022-08-07T22:22:27.875Z,1.80
2022-08-07T22:25:08.424Z,2.00
2022-08-07T22:28:19.842Z,2.00
2022-08-07T22:30:36.750Z,2.07
2022-08-07T22:33:09.623Z,2.37
2022-08-07T22:36:01.112Z,2.00
2022-08-07T22:38:47.913Z,2.37
2022-08-07T22:41:29.115Z,2.00
2022-08-07T22:44:21.770Z,2.10
2022-08-07T22:47:24.680Z,2.00
2022-08-07T22:50:49.063Z,2.30
2022-08-07T22:54:05.695Z,2.63
2022-08-07T22:57:05.457Z,1.97
2022-08-07T23:00:32.900Z,2.33
2022-08-07T23:03:58.989Z,2.17
2022-08-07T23:06:50.633Z,2.27
2022-08-07T23:10:36.515Z,2.27
2022-08-07T23:13:29.599Z,2.03
2022-08-07T23:16:48.566Z,2.60
2022-08-07T23:20:21.302Z,2.17
2022-08-07T23:24:04.218Z,2.30
2022-08-07T23:26:55.012Z,2.30
2022-08-07T23:30:38.789Z,2.50
2022-08-07T23:34:20.917Z,2.70
2022-08-07T23:36:29.824Z,2.80
2022-08-07T23:39:56.708Z,2.67
2022-08-07T23:42:57.768Z,2.70
2022-08-07T23:46:03.252Z,2.77
2022-08-07T23:49:15.215Z,2.50
2022-08-07T23:53:05.491Z,2.30
2022-08-07T23:55:51.809Z,2.23
2022-08-07T23:58:26.703Z,2.60
